createdAt,value
2023-03-06T00:00:48.564Z,51.45
2023-03-06T00:01:50.779Z,56.38
2023-03-06T00:02:53.274Z,58.38
2023-03-06T00:03:55.380Z,59.22
2023-03-06T00:04:57.308Z,59.97
2023-03-06T00:05:59.567Z,55.10
2023-03-06T00:07:01.161Z,54.47
2023-03-06T00:08:02.850Z,55.92
2023-03-06T00:09:04.423Z,60.28
2023-03-06T00:10:06.549Z,59.33
2023-03-06T00:11:08.185Z,50.15
2023-03-06T00:12:09.935Z,50.70
2023-03-06T00:13:14.165Z,59.75
2023-03-06T00:14:16.606Z,48.28
2023-03-06T00:15:18.769Z,56.15
2023-03-06T00:16:20.422Z,61.33
2023-03-06T00:17:22.131Z,53.63
2023-03-06T00:18:23.768Z,53.00
2023-03-06T00:19:25.478Z,55.65
2023-03-06T00:20:27.313Z,53.85
2023-03-06T00:21:28.990Z,55.85
2023-03-06T00:22:30.611Z,56.08
2023-03-06T00:23:32.231Z,51.50
2023-03-06T00:24:33.830Z,56.22
2023-03-06T00:25:38.750Z,51.92
2023-03-06T00:26:41.379Z,57.45
2023-03-06T00:27:43.697Z,53.97
2023-03-06T00:28:45.474Z,49.45
2023-03-06T00:29:49.839Z,51.58
2023-03-06T00:30:51.503Z,50.95
2023-03-06T00:31:53.058Z,50.78
2023-03-06T00:32:54.667Z,50.75
2023-03-06T00:33:56.274Z,47.08
2023-03-06T00:34:57.969Z,49.53
2023-03-06T00:35:59.546Z,58.90
2023-03-06T00:37:01.192Z,50.08
2023-03-06T00:38:02.809Z,52.20
2023-03-06T00:39:05.090Z,49.45
2023-03-06T00:40:08.369Z,48.80
2023-03-06T00:41:11.528Z,54.08
2023-03-06T00:42:13.380Z,50.75
2023-03-06T00:43:15.076Z,51.92
2023-03-06T00:44:16.780Z,46.58
2023-03-06T00:45:18.452Z,45.38
2023-03-06T00:46:20.156Z,45.92
2023-03-06T00:47:21.878Z,45.20
2023-03-06T00:48:23.506Z,53.45
2023-03-06T00:49:25.227Z,48.22
2023-03-06T00:50:26.884Z,43.90
2023-03-06T00:51:28.589Z,46.78
2023-03-06T00:52:30.301Z,45.47
2023-03-06T00:53:31.972Z,42.35
2023-03-06T00:54:33.579Z,42.40
2023-03-06T00:55:35.235Z,44.30
2023-03-06T00:56:36.821Z,47.47
2023-03-06T00:57:38.371Z,46.97
2023-03-06T00:58:39.929Z,46.00
2023-03-06T00:59:41.701Z,47.35
2023-03-06T01:00:43.430Z,51.40
2023-03-06T01:01:45.189Z,43.25
2023-03-06T01:02:46.763Z,46.40
2023-03-06T01:03:48.362Z,41.45
2023-03-06T01:04:50.074Z,47.35
2023-03-06T01:05:51.705Z,40.97
2023-03-06T01:06:53.384Z,48.28
2023-03-06T01:07:55.010Z,44.28
2023-03-06T01:08:56.672Z,47.08
2023-03-06T01:09:58.237Z,45.72
2023-03-06T01:10:59.855Z,39.85
2023-03-06T01:12:01.490Z,41.25
2023-03-06T01:13:03.096Z,34.78
2023-03-06T01:14:04.951Z,37.55
2023-03-06T01:15:07.572Z,43.55
2023-03-06T01:16:12.563Z,42.97
2023-03-06T01:17:14.345Z,45.42
2023-03-06T01:18:16.198Z,39.90
2023-03-06T01:19:18.296Z,44.42
2023-03-06T01:20:20.978Z,42.45
2023-03-06T01:21:22.586Z,44.72
2023-03-06T01:22:24.203Z,47.60
2023-03-06T01:23:25.792Z,46.35
2023-03-06T01:24:28.611Z,49.67
2023-03-06T01:25:30.229Z,47.90
2023-03-06T01:26:31.882Z,44.25
2023-03-06T01:27:33.584Z,46.38
2023-03-06T01:28:37.598Z,45.92
2023-03-06T01:29:39.255Z,46.30
2023-03-06T01:30:40.952Z,46.75
2023-03-06T01:31:42.796Z,45.58
2023-03-06T01:32:44.760Z,48.50
2023-03-06T01:33:46.668Z,43.00
2023-03-06T01:34:48.268Z,46.10
2023-03-06T01:35:49.873Z,46.78
2023-03-06T01:36:51.468Z,47.38
2023-03-06T01:37:53.151Z,52.72
2023-03-06T01:38:54.720Z,48.67
2023-03-06T01:39:56.526Z,47.15
2023-03-06T01:40:58.175Z,49.67
2023-03-06T01:41:59.789Z,54.25
2023-03-06T01:43:29.438Z,53.45
2023-03-06T01:44:31.344Z,48.97
2023-03-06T01:45:36.107Z,50.55
2023-03-06T01:46:44.072Z,48.88
2023-03-06T01:47:45.668Z,46.58
2023-03-06T01:48:48.569Z,48.60
2023-03-06T01:50:53.133Z,43.10
2023-03-06T01:52:00.196Z,42.60
2023-03-06T01:53:01.967Z,46.30
2023-03-06T01:54:09.241Z,45.28
2023-03-06T01:55:22.631Z,45.55
2023-03-06T01:56:25.120Z,44.10
2023-03-06T01:57:32.708Z,42.25
2023-03-06T01:58:34.559Z,42.92
2023-03-06T01:59:39.112Z,46.00
2023-03-06T02:00:40.802Z,51.85
2023-03-06T02:01:44.224Z,45.05
2023-03-06T02:02:51.164Z,40.47
2023-03-06T02:03:53.279Z,45.50
2023-03-06T02:04:54.982Z,42.20
2023-03-06T02:05:56.925Z,45.83
2023-03-06T02:07:00.315Z,46.80
2023-03-06T02:08:03.970Z,38.15
2023-03-06T02:09:06.674Z,46.78
2023-03-06T02:10:09.877Z,41.13
2023-03-06T02:11:13.662Z,45.60
2023-03-06T02:12:19.198Z,36.03
2023-03-06T02:13:20.841Z,45.33
2023-03-06T02:14:22.720Z,46.15
2023-03-06T02:15:26.863Z,41.03
2023-03-06T02:16:31.787Z,43.80
2023-03-06T02:17:34.942Z,44.17
2023-03-06T02:18:38.075Z,41.50
2023-03-06T02:19:58.021Z,45.10
2023-03-06T02:21:04.156Z,42.10
2023-03-06T02:22:06.070Z,39.72
2023-03-06T02:23:31.795Z,44.22
2023-03-06T02:24:40.882Z,39.40
2023-03-06T02:26:46.984Z,35.83
2023-03-06T02:27:49.255Z,41.75
2023-03-06T02:28:50.879Z,36.25
2023-03-06T02:29:52.505Z,39.95
2023-03-06T02:30:56.774Z,38.45
2023-03-06T02:31:58.390Z,39.42
2023-03-06T02:33:00.084Z,41.92
2023-03-06T02:34:01.633Z,39.63
2023-03-06T02:35:04.087Z,41.15
2023-03-06T02:36:07.651Z,40.63
2023-03-06T02:37:10.629Z,40.63
2023-03-06T02:38:17.731Z,42.35
2023-03-06T02:39:24.008Z,41.08
2023-03-06T02:40:26.389Z,44.17
2023-03-06T02:41:28.377Z,37.75
2023-03-06T02:42:30.150Z,39.33
2023-03-06T02:43:34.353Z,38.60
2023-03-06T02:44:36.900Z,39.53
2023-03-06T02:45:45.273Z,40.35
2023-03-06T02:46:46.924Z,44.70
2023-03-06T02:47:48.589Z,38.97
2023-03-06T02:48:50.194Z,36.33
2023-03-06T02:49:51.920Z,42.13
2023-03-06T02:50:53.502Z,40.15
2023-03-06T02:51:55.077Z,38.38
2023-03-06T02:52:56.734Z,36.70
2023-03-06T02:53:58.395Z,36.08
2023-03-06T02:55:00.097Z,40.22
2023-03-06T02:56:01.894Z,40.20
2023-03-06T02:57:03.647Z,37.47
2023-03-06T02:58:05.395Z,38.70
2023-03-06T02:59:07.032Z,39.08
2023-03-06T03:00:10.164Z,37.30
2023-03-06T03:01:11.957Z,36.72
2023-03-06T03:02:13.646Z,34.20
2023-03-06T03:03:16.038Z,42.20
2023-03-06T03:04:17.681Z,35.70
2023-03-06T03:05:19.334Z,38.97
2023-03-06T03:06:20.899Z,35.50
2023-03-06T03:07:22.468Z,38.20
2023-03-06T03:08:24.011Z,40.97
2023-03-06T03:09:25.592Z,40.63
2023-03-06T03:10:27.390Z,41.47
2023-03-06T03:11:28.958Z,43.40
2023-03-06T03:12:30.595Z,37.30
2023-03-06T03:13:33.009Z,39.58
2023-03-06T03:14:34.759Z,40.33
2023-03-06T03:15:36.530Z,41.90
2023-03-06T03:16:39.186Z,42.63
2023-03-06T03:17:41.625Z,39.58
2023-03-06T03:18:44.697Z,40.33
2023-03-06T03:19:46.375Z,45.22
2023-03-06T03:20:48.035Z,44.78
2023-03-06T03:21:50.160Z,41.17
2023-03-06T03:22:55.068Z,44.67
2023-03-06T03:23:56.980Z,41.42
2023-03-06T03:24:58.662Z,45.53
2023-03-06T03:26:14.721Z,43.72
2023-03-06T03:27:16.326Z,44.17
2023-03-06T03:28:18.944Z,43.67
2023-03-06T03:29:20.770Z,45.45
2023-03-06T03:30:22.564Z,46.70
2023-03-06T03:31:24.165Z,42.70
2023-03-06T03:32:27.150Z,41.22
2023-03-06T03:33:28.739Z,40.15
2023-03-06T03:34:30.539Z,46.92
2023-03-06T03:35:32.212Z,43.88
2023-03-06T03:36:33.991Z,43.85
2023-03-06T03:37:36.788Z,40.63
2023-03-06T03:38:38.392Z,44.75
2023-03-06T03:39:39.972Z,46.28
2023-03-06T03:40:41.566Z,43.47
2023-03-06T03:41:43.300Z,39.17
2023-03-06T03:42:45.001Z,44.75
2023-03-06T03:43:46.608Z,42.85
2023-03-06T03:44:48.277Z,40.47
2023-03-06T03:45:49.945Z,39.72
2023-03-06T03:46:51.701Z,45.67
2023-03-06T03:47:53.450Z,44.15
2023-03-06T03:48:55.171Z,46.45
2023-03-06T03:49:56.795Z,42.33
2023-03-06T03:51:06.658Z,45.15
2023-03-06T03:52:08.344Z,48.00
2023-03-06T03:53:10.180Z,39.95
2023-03-06T03:54:11.835Z,46.75
2023-03-06T03:55:13.481Z,41.38
2023-03-06T03:56:15.166Z,40.63
2023-03-06T03:57:16.929Z,42.80
2023-03-06T03:58:18.601Z,43.35
2023-03-06T03:59:21.111Z,39.72
2023-03-06T04:00:22.905Z,45.72
2023-03-06T04:01:25.173Z,44.50
2023-03-06T04:02:26.894Z,41.03
2023-03-06T04:03:29.101Z,47.63
2023-03-06T04:04:30.944Z,46.75
2023-03-06T04:05:34.036Z,44.08
2023-03-06T04:06:35.635Z,43.72
2023-03-06T04:07:37.674Z,42.15
2023-03-06T04:08:39.407Z,40.08
2023-03-06T04:09:41.488Z,47.53
2023-03-06T04:10:43.218Z,44.92
2023-03-06T04:11:44.888Z,43.83
2023-03-06T04:12:46.599Z,45.05
2023-03-06T04:13:48.367Z,46.75
2023-03-06T04:14:50.118Z,48.53
2023-03-06T04:15:53.869Z,46.50
2023-03-06T04:16:55.542Z,43.05
2023-03-06T04:17:57.278Z,47.05
2023-03-06T04:18:58.928Z,39.72
2023-03-06T04:20:04.983Z,48.17
2023-03-06T04:21:06.881Z,47.47
2023-03-06T04:22:08.545Z,47.03
2023-03-06T04:23:10.439Z,47.08
2023-03-06T04:24:12.200Z,44.10
2023-03-06T04:25:13.966Z,45.13
2023-03-06T04:26:15.703Z,43.70
2023-03-06T04:27:17.385Z,49.38
2023-03-06T04:28:19.332Z,42.40
2023-03-06T04:29:21.083Z,43.58
2023-03-06T04:30:22.789Z,52.55
2023-03-06T04:31:24.575Z,45.33
2023-03-06T04:32:26.381Z,44.08
2023-03-06T04:33:28.209Z,44.10
2023-03-06T04:34:29.811Z,46.85
2023-03-06T04:35:31.692Z,45.45
2023-03-06T04:36:35.052Z,47.30
2023-03-06T04:37:36.674Z,44.80
2023-03-06T04:38:38.270Z,43.60
2023-03-06T04:39:39.838Z,45.50
2023-03-06T04:40:44.557Z,44.10
2023-03-06T04:41:46.608Z,50.15
2023-03-06T04:42:49.254Z,48.60
2023-03-06T04:43:51.213Z,53.17
2023-03-06T04:44:52.886Z,48.80
2023-03-06T04:45:54.532Z,46.03
2023-03-06T04:46:56.174Z,40.83
2023-03-06T04:47:57.768Z,47.92
2023-03-06T04:48:59.650Z,45.60
2023-03-06T04:50:01.558Z,48.72
2023-03-06T04:51:03.238Z,48.28
2023-03-06T04:52:05.296Z,45.78
2023-03-06T04:53:06.931Z,44.35
2023-03-06T04:54:08.603Z,46.92
2023-03-06T04:55:13.666Z,45.47
2023-03-06T04:56:15.297Z,45.72
2023-03-06T04:57:16.973Z,44.03
2023-03-06T04:58:18.624Z,44.60
2023-03-06T04:59:20.243Z,45.95
2023-03-06T05:00:24.479Z,44.05
2023-03-06T05:01:26.199Z,51.17
2023-03-06T05:02:27.843Z,45.88
2023-03-06T05:03:29.601Z,44.60
2023-03-06T05:04:31.289Z,43.33
2023-03-06T05:05:32.861Z,41.10
2023-03-06T05:06:34.535Z,47.70
2023-03-06T05:07:36.502Z,44.10
2023-03-06T05:08:38.105Z,41.45
2023-03-06T05:09:39.637Z,43.97
2023-03-06T05:10:42.714Z,39.00
2023-03-06T05:11:44.307Z,44.38
2023-03-06T05:12:46.035Z,41.47
2023-03-06T05:13:47.846Z,47.22
2023-03-06T05:14:49.534Z,40.67
2023-03-06T05:15:51.246Z,41.63
2023-03-06T05:16:52.933Z,38.83
2023-03-06T05:17:55.454Z,42.15
2023-03-06T05:18:57.011Z,38.15
2023-03-06T05:19:58.706Z,38.55
2023-03-06T05:21:01.181Z,39.15
2023-03-06T05:22:02.780Z,39.45
2023-03-06T05:23:04.469Z,38.22
2023-03-06T05:24:06.241Z,39.05
2023-03-06T05:25:08.634Z,40.70
2023-03-06T05:26:12.140Z,44.25
2023-03-06T05:27:16.486Z,34.28
2023-03-06T05:28:18.419Z,33.33
2023-03-06T05:29:20.242Z,37.03
2023-03-06T05:30:23.335Z,35.70
2023-03-06T05:31:25.007Z,37.83
2023-03-06T05:32:26.788Z,31.40
2023-03-06T05:33:28.428Z,35.55
2023-03-06T05:34:30.054Z,39.13
2023-03-06T05:35:31.916Z,30.02
2023-03-06T05:36:33.531Z,36.67
2023-03-06T05:37:35.227Z,36.75
2023-03-06T05:38:36.948Z,31.00
2023-03-06T05:39:38.564Z,36.08
2023-03-06T05:40:44.068Z,30.98
2023-03-06T05:41:45.665Z,35.72
2023-03-06T05:42:47.284Z,34.40
2023-03-06T05:43:48.980Z,33.92
2023-03-06T05:44:50.755Z,35.15
2023-03-06T05:46:00.363Z,33.67
2023-03-06T05:47:02.490Z,35.40
2023-03-06T05:48:04.694Z,34.55
2023-03-06T05:49:06.318Z,34.97
2023-03-06T05:50:10.521Z,29.10
2023-03-06T05:51:12.246Z,31.95
2023-03-06T05:52:15.159Z,33.00
2023-03-06T05:54:18.296Z,30.80
2023-03-06T05:55:21.801Z,40.53
2023-03-06T05:56:23.656Z,34.08
2023-03-06T05:57:25.275Z,36.70
2023-03-06T05:58:27.895Z,35.45
2023-03-06T05:59:29.513Z,36.63
2023-03-06T06:00:31.081Z,38.17
2023-03-06T06:01:32.691Z,34.70
2023-03-06T06:02:34.400Z,34.50
2023-03-06T06:03:36.107Z,33.28
2023-03-06T06:04:37.747Z,34.42
2023-03-06T06:05:39.993Z,37.22
2023-03-06T06:06:41.579Z,34.63
2023-03-06T06:07:43.168Z,34.08
2023-03-06T06:08:44.912Z,32.28
2023-03-06T06:09:46.588Z,37.80
2023-03-06T06:10:48.177Z,37.60
2023-03-06T06:12:03.724Z,31.05
2023-03-06T06:13:05.712Z,34.17
2023-03-06T06:14:07.307Z,41.75
2023-03-06T06:15:09.515Z,45.13
2023-03-06T06:16:13.535Z,29.23
2023-03-06T06:17:16.633Z,32.95
2023-03-06T06:18:18.503Z,33.38
2023-03-06T06:19:20.849Z,31.40
2023-03-06T06:20:22.867Z,28.92
2023-03-06T06:21:24.572Z,33.50
2023-03-06T06:22:26.313Z,31.25
2023-03-06T06:23:27.859Z,33.88
2023-03-06T06:24:30.276Z,33.88
2023-03-06T06:25:32.715Z,31.40
2023-03-06T06:26:34.347Z,39.78
2023-03-06T06:27:35.951Z,31.45
2023-03-06T06:28:37.606Z,34.38
2023-03-06T06:29:39.182Z,30.33
2023-03-06T06:30:40.750Z,30.98
2023-03-06T06:31:42.433Z,36.22
2023-03-06T06:32:44.096Z,40.00
2023-03-06T06:33:45.722Z,30.85
2023-03-06T06:34:47.412Z,30.00
2023-03-06T06:35:49.135Z,32.97
2023-03-06T06:36:53.379Z,30.98
2023-03-06T06:37:55.376Z,36.60
2023-03-06T06:38:57.164Z,31.88
2023-03-06T06:39:58.798Z,31.88
2023-03-06T06:41:35.616Z,31.73
2023-03-06T06:42:39.044Z,32.47
2023-03-06T06:43:41.352Z,28.00
2023-03-06T06:44:42.978Z,30.17
2023-03-06T06:45:44.627Z,36.25
2023-03-06T06:48:08.695Z,29.25
2023-03-06T06:49:10.284Z,35.13
2023-03-06T06:50:13.727Z,30.77
2023-03-06T06:51:16.187Z,31.13
2023-03-06T06:52:19.010Z,29.90
2023-03-06T06:54:22.456Z,30.15
2023-03-06T06:55:24.006Z,28.48
2023-03-06T06:56:25.930Z,33.47
2023-03-06T06:57:27.600Z,32.80
2023-03-06T06:58:29.206Z,34.05
2023-03-06T06:59:30.838Z,35.72
2023-03-06T07:00:32.397Z,35.08
2023-03-06T07:01:34.034Z,33.05
2023-03-06T07:02:35.644Z,36.15
2023-03-06T07:03:37.551Z,29.08
2023-03-06T07:04:49.341Z,28.23
2023-03-06T07:05:58.024Z,37.50
2023-03-06T07:07:00.054Z,31.10
2023-03-06T07:08:01.660Z,37.03
2023-03-06T07:09:05.195Z,30.13
2023-03-06T07:10:12.107Z,27.35
2023-03-06T07:11:17.559Z,37.22
2023-03-06T07:12:19.216Z,28.75
2023-03-06T07:13:20.835Z,26.70
2023-03-06T07:14:22.432Z,32.22
2023-03-06T07:15:26.934Z,32.13
2023-03-06T07:16:28.607Z,33.15
2023-03-06T07:17:30.293Z,24.17
2023-03-06T07:18:31.918Z,29.40
2023-03-06T07:19:33.495Z,30.23
2023-03-06T07:20:35.270Z,31.98
2023-03-06T07:21:36.864Z,23.83
2023-03-06T07:22:50.495Z,32.38
2023-03-06T07:23:54.339Z,30.48
2023-03-06T07:24:55.969Z,31.20
2023-03-06T07:25:57.852Z,29.10
2023-03-06T07:26:59.431Z,31.65
2023-03-06T07:28:01.082Z,30.30
2023-03-06T07:29:04.452Z,32.42
2023-03-06T07:30:06.950Z,31.83
2023-03-06T07:31:10.286Z,32.60
2023-03-06T07:32:12.139Z,27.20
2023-03-06T07:33:14.838Z,28.98
2023-03-06T07:34:16.467Z,29.65
2023-03-06T07:35:20.425Z,30.67
2023-03-06T07:36:23.791Z,31.95
2023-03-06T07:38:26.841Z,27.05
2023-03-06T07:39:30.177Z,29.73
2023-03-06T07:40:31.912Z,28.83
2023-03-06T07:41:33.921Z,25.88
2023-03-06T07:42:36.075Z,23.77
2023-03-06T07:43:37.702Z,28.08
2023-03-06T07:44:39.374Z,28.80
2023-03-06T07:45:40.976Z,32.10
2023-03-06T07:46:42.622Z,27.33
2023-03-06T07:47:44.285Z,28.00
2023-03-06T07:48:45.930Z,29.60
2023-03-06T07:49:47.524Z,29.25
2023-03-06T07:51:00.884Z,29.63
2023-03-06T07:52:02.449Z,37.40
2023-03-06T07:53:04.114Z,28.42
2023-03-06T07:54:05.868Z,28.83
2023-03-06T07:55:08.608Z,27.58
2023-03-06T07:56:11.904Z,24.85
2023-03-06T07:57:13.678Z,27.20
2023-03-06T07:58:15.271Z,26.35
2023-03-06T07:59:16.889Z,27.88
2023-03-06T08:00:18.985Z,27.02
2023-03-06T08:01:23.588Z,29.45
2023-03-06T08:02:25.219Z,32.25
2023-03-06T08:03:26.906Z,26.92
2023-03-06T08:04:30.074Z,26.92
2023-03-06T08:05:31.868Z,29.08
2023-03-06T08:06:33.726Z,27.67
2023-03-06T08:07:35.850Z,24.52
2023-03-06T08:08:42.159Z,22.60
2023-03-06T08:09:43.752Z,24.00
2023-03-06T08:10:49.154Z,24.95
2023-03-06T08:11:50.804Z,26.48
2023-03-06T08:12:52.408Z,26.65
2023-03-06T08:13:55.214Z,22.55
2023-03-06T08:14:56.849Z,24.05
2023-03-06T08:15:59.928Z,22.45
2023-03-06T08:17:01.629Z,22.95
2023-03-06T08:18:03.336Z,24.25
2023-03-06T08:19:05.349Z,21.35
2023-03-06T08:20:08.138Z,19.42
2023-03-06T08:21:21.642Z,20.40
2023-03-06T08:22:23.891Z,20.17
2023-03-06T08:23:25.486Z,21.02
2023-03-06T08:24:27.150Z,22.42
2023-03-06T08:25:29.591Z,24.13
2023-03-06T08:26:32.155Z,18.25
2023-03-06T08:27:35.039Z,22.17
2023-03-06T08:29:38.196Z,19.08
2023-03-06T08:30:39.910Z,21.38
2023-03-06T08:31:43.824Z,20.00
2023-03-06T08:32:45.464Z,19.42
2023-03-06T08:33:47.163Z,18.55
2023-03-06T08:34:48.765Z,19.10
2023-03-06T08:35:50.528Z,21.10
2023-03-06T08:36:52.204Z,22.05
2023-03-06T08:37:54.057Z,18.23
2023-03-06T08:38:55.842Z,19.33
2023-03-06T08:39:57.513Z,19.23
2023-03-06T08:40:59.123Z,17.88
2023-03-06T08:42:00.846Z,21.70
2023-03-06T08:43:02.523Z,21.67
2023-03-06T08:44:05.302Z,23.70
2023-03-06T08:45:07.636Z,17.60
2023-03-06T08:46:10.796Z,20.15
2023-03-06T08:47:12.601Z,20.25
2023-03-06T08:48:14.237Z,17.50
2023-03-06T08:49:15.832Z,20.23
2023-03-06T08:50:19.128Z,20.58
2023-03-06T08:51:21.941Z,18.48
2023-03-06T08:52:23.564Z,16.95
2023-03-06T08:53:40.276Z,16.52
2023-03-06T08:54:44.042Z,15.48
2023-03-06T08:55:46.208Z,14.63
2023-03-06T08:56:48.061Z,18.15
2023-03-06T08:57:49.648Z,20.00
2023-03-06T08:58:52.008Z,20.25
2023-03-06T08:59:53.603Z,16.38
2023-03-06T09:00:55.504Z,14.02
2023-03-06T09:01:57.257Z,15.30
2023-03-06T09:02:59.086Z,19.17
2023-03-06T09:04:03.974Z,24.00
2023-03-06T09:05:09.224Z,16.15
2023-03-06T09:06:11.801Z,14.80
2023-03-06T09:07:13.404Z,17.88
2023-03-06T09:08:15.086Z,15.75
2023-03-06T09:09:16.710Z,20.33
2023-03-06T09:10:21.212Z,17.80
2023-03-06T09:11:26.264Z,22.27
2023-03-06T09:12:30.718Z,15.63
2023-03-06T09:13:32.460Z,16.70
2023-03-06T09:14:34.055Z,15.95
2023-03-06T09:15:36.280Z,14.88
2023-03-06T09:16:37.991Z,14.48
2023-03-06T09:17:40.149Z,20.33
2023-03-06T09:18:41.841Z,15.60
2023-03-06T09:19:43.467Z,13.93
2023-03-06T09:20:45.070Z,16.13
2023-03-06T09:21:46.793Z,13.15
2023-03-06T09:22:48.719Z,13.35
2023-03-06T09:23:51.277Z,13.98
2023-03-06T09:24:54.153Z,15.80
2023-03-06T09:26:58.372Z,19.35
2023-03-06T09:28:10.824Z,14.82
2023-03-06T09:29:12.922Z,17.95
2023-03-06T09:30:15.567Z,15.18
2023-03-06T09:31:20.121Z,15.02
2023-03-06T09:32:22.888Z,15.27
2023-03-06T09:33:24.686Z,15.20
2023-03-06T09:34:27.803Z,15.98
2023-03-06T09:35:29.465Z,11.52
2023-03-06T09:36:31.203Z,13.35
2023-03-06T09:37:32.814Z,11.50
2023-03-06T09:38:35.009Z,12.40
2023-03-06T09:39:36.619Z,12.27
2023-03-06T09:41:03.680Z,12.25
2023-03-06T09:42:12.282Z,18.00
2023-03-06T09:43:21.593Z,15.00
2023-03-06T09:44:27.728Z,16.15
2023-03-06T09:45:30.166Z,13.15
2023-03-06T09:46:56.872Z,13.48
2023-03-06T09:48:04.779Z,11.40
2023-03-06T09:49:31.538Z,13.32
2023-03-06T09:50:40.834Z,16.02
2023-03-06T09:52:08.133Z,13.77
2023-03-06T09:53:26.445Z,12.80
2023-03-06T09:54:46.174Z,10.98
2023-03-06T09:55:59.255Z,14.40
2023-03-06T09:57:00.897Z,15.20
2023-03-06T09:58:21.429Z,18.10
2023-03-06T09:59:25.265Z,12.18
2023-03-06T10:00:33.856Z,12.40
2023-03-06T10:01:40.608Z,13.05
2023-03-06T10:02:47.205Z,15.77
2023-03-06T10:03:58.025Z,15.98
2023-03-06T10:05:04.148Z,13.20
2023-03-06T10:06:15.870Z,14.23
2023-03-06T10:07:31.901Z,11.98
2023-03-06T10:09:09.748Z,14.75
2023-03-06T10:10:24.115Z,12.80
2023-03-06T10:11:34.694Z,13.73
2023-03-06T10:12:41.237Z,19.08
2023-03-06T10:13:51.684Z,19.70
2023-03-06T10:15:18.442Z,12.77
2023-03-06T10:16:30.330Z,12.77
2023-03-06T10:17:37.310Z,15.40
2023-03-06T10:18:39.507Z,13.43
2023-03-06T10:19:42.455Z,13.60
2023-03-06T10:20:59.469Z,12.93
2023-03-06T10:22:29.301Z,12.38
2023-03-06T10:24:13.820Z,35.00
2023-03-06T10:25:45.620Z,123.22
2023-03-06T10:26:58.678Z,38.47
2023-03-06T10:28:13.756Z,13.32
2023-03-06T10:31:34.878Z,19.30
2023-03-06T10:32:51.697Z,29.00
2023-03-06T10:33:59.472Z,15.60
2023-03-06T10:35:02.487Z,14.70
2023-03-06T10:36:04.815Z,12.38
2023-03-06T10:37:18.360Z,10.73
2023-03-06T10:38:37.527Z,12.93
2023-03-06T10:39:39.712Z,14.20
2023-03-06T10:40:54.423Z,13.35
2023-03-06T10:41:56.131Z,12.15
2023-03-06T10:43:10.886Z,13.25
2023-03-06T10:44:13.179Z,14.63
2023-03-06T10:45:16.913Z,13.43
2023-03-06T10:46:28.784Z,15.77
2023-03-06T10:47:36.924Z,14.70
2023-03-06T10:48:41.962Z,14.35
2023-03-06T10:49:57.641Z,12.35
2023-03-06T10:51:20.126Z,14.93
2023-03-06T10:52:23.053Z,12.85
2023-03-06T10:53:29.214Z,13.98
2023-03-06T10:54:34.659Z,12.60
2023-03-06T10:55:38.038Z,18.00
2023-03-06T10:56:44.984Z,15.02
2023-03-06T10:57:46.528Z,18.52
2023-03-06T10:58:48.106Z,15.95
2023-03-06T10:59:52.614Z,15.52
2023-03-06T11:01:20.469Z,12.65
2023-03-06T11:02:24.721Z,15.77
2023-03-06T11:03:26.322Z,14.10
2023-03-06T11:04:33.683Z,18.70
2023-03-06T11:05:35.319Z,18.67
2023-03-06T11:06:36.964Z,16.27
2023-03-06T11:07:54.258Z,14.65
2023-03-06T11:09:19.107Z,14.40
2023-03-06T11:10:20.824Z,12.98
2023-03-06T11:11:36.815Z,15.68
2023-03-06T11:12:41.315Z,16.17
2023-03-06T11:13:44.675Z,15.82
2023-03-06T11:14:46.437Z,18.02
2023-03-06T11:16:06.576Z,15.20
2023-03-06T11:17:26.990Z,16.50
2023-03-06T11:18:50.959Z,18.10
2023-03-06T11:20:16.526Z,12.45
2023-03-06T11:21:58.481Z,16.67
2023-03-06T11:23:04.709Z,15.60
2023-03-06T11:24:14.991Z,15.75
2023-03-06T11:25:20.818Z,13.77
2023-03-06T11:26:34.499Z,13.90
2023-03-06T11:27:42.605Z,16.42
2023-03-06T11:28:52.422Z,15.90
2023-03-06T11:29:55.441Z,14.93
2023-03-06T11:31:09.411Z,17.90
2023-03-06T11:32:21.604Z,18.05
2023-03-06T11:33:42.752Z,14.85
2023-03-06T11:36:27.010Z,16.77
2023-03-06T11:37:54.105Z,14.88
2023-03-06T11:38:56.195Z,15.93
2023-03-06T11:40:25.496Z,21.95
2023-03-06T11:41:39.229Z,19.38
2023-03-06T11:42:47.596Z,16.90
2023-03-06T11:44:26.608Z,18.42
2023-03-06T11:45:37.265Z,17.27
2023-03-06T11:46:44.099Z,17.42
2023-03-06T11:47:55.397Z,15.73
2023-03-06T11:49:21.438Z,23.88
2023-03-06T11:50:27.812Z,19.65
2023-03-06T11:51:35.448Z,17.33
2023-03-06T11:52:44.423Z,14.05
2023-03-06T11:54:55.408Z,14.40
2023-03-06T11:56:18.723Z,17.13
2023-03-06T11:57:31.714Z,14.52
2023-03-06T11:59:01.006Z,17.35
2023-03-06T12:00:02.567Z,14.63
2023-03-06T12:01:18.051Z,16.13
2023-03-06T12:02:23.914Z,18.05
2023-03-06T12:03:31.767Z,17.33
2023-03-06T12:05:08.154Z,18.27
2023-03-06T12:06:15.840Z,16.55
2023-03-06T12:07:47.878Z,22.20
2023-03-06T12:09:05.051Z,16.02
2023-03-06T12:10:23.681Z,13.90
2023-03-06T12:12:07.078Z,14.88
2023-03-06T12:13:54.293Z,19.20
2023-03-06T12:15:17.133Z,16.58
2023-03-06T12:16:24.616Z,17.25
2023-03-06T12:17:35.312Z,16.00
2023-03-06T12:19:07.735Z,16.52
2023-03-06T12:20:24.670Z,19.67
2023-03-06T12:21:26.202Z,15.32
2023-03-06T12:22:36.712Z,14.65
2023-03-06T12:23:53.310Z,17.58
2023-03-06T12:24:57.922Z,15.25
2023-03-06T12:26:18.590Z,20.38
2023-03-06T12:27:28.326Z,20.08
2023-03-06T12:28:46.401Z,19.60
2023-03-06T12:30:29.733Z,15.23
2023-03-06T12:32:02.052Z,15.10
2023-03-06T12:33:18.614Z,16.13
2023-03-06T12:34:23.135Z,17.58
2023-03-06T12:35:49.321Z,15.75
2023-03-06T12:37:21.274Z,16.15
2023-03-06T12:38:28.884Z,19.33
2023-03-06T12:39:36.487Z,19.23
2023-03-06T12:40:55.990Z,17.65
2023-03-06T12:42:22.973Z,15.48
2023-03-06T12:43:47.449Z,16.75
2023-03-06T12:44:56.032Z,23.38
2023-03-06T12:46:14.268Z,17.50
2023-03-06T12:47:20.795Z,17.15
2023-03-06T12:48:25.857Z,19.83
2023-03-06T12:49:34.627Z,16.30
2023-03-06T12:50:37.209Z,15.93
2023-03-06T12:51:40.118Z,17.38
2023-03-06T12:52:42.222Z,18.77
2023-03-06T12:53:45.363Z,24.17
2023-03-06T12:54:47.408Z,18.08
2023-03-06T12:55:49.909Z,18.20
2023-03-06T12:56:54.390Z,16.02
2023-03-06T12:57:56.034Z,19.23
2023-03-06T12:59:02.459Z,17.70
2023-03-06T13:00:04.548Z,17.15
2023-03-06T13:01:43.489Z,18.80
2023-03-06T13:03:00.125Z,16.58
2023-03-06T13:04:07.400Z,15.23
2023-03-06T13:05:29.415Z,15.20
2023-03-06T13:07:07.190Z,18.25
2023-03-06T13:08:38.151Z,16.02
2023-03-06T13:10:03.814Z,17.98
2023-03-06T13:11:33.056Z,18.42
2023-03-06T13:12:50.083Z,19.17
2023-03-06T13:13:51.677Z,17.00
2023-03-06T13:15:06.858Z,15.80
2023-03-06T13:16:13.595Z,18.30
2023-03-06T13:17:24.342Z,20.17
2023-03-06T13:18:25.882Z,19.48
2023-03-06T13:19:27.498Z,18.08
2023-03-06T13:20:44.085Z,17.88
2023-03-06T13:21:54.474Z,19.90
2023-03-06T13:22:56.783Z,17.38
2023-03-06T13:24:05.748Z,18.20
2023-03-06T13:26:29.033Z,16.80
2023-03-06T13:27:56.456Z,16.27
2023-03-06T13:28:58.520Z,18.33
2023-03-06T13:30:37.118Z,15.82
2023-03-06T13:31:40.131Z,15.30
2023-03-06T13:32:41.799Z,16.30
2023-03-06T13:33:43.475Z,16.92
2023-03-06T13:34:47.193Z,15.00
2023-03-06T13:35:52.705Z,15.48
2023-03-06T13:37:17.221Z,18.20
2023-03-06T13:38:33.796Z,16.08
2023-03-06T13:39:55.510Z,16.10
2023-03-06T13:41:22.066Z,16.42
2023-03-06T13:42:31.240Z,13.68
2023-03-06T13:43:41.434Z,18.35
2023-03-06T13:44:44.603Z,15.20
2023-03-06T13:45:47.901Z,26.92
2023-03-06T13:46:59.139Z,17.52
2023-03-06T13:48:37.580Z,16.20
2023-03-06T13:49:24.821Z,18.52
2023-03-06T13:50:32.482Z,16.85
2023-03-06T13:51:38.893Z,14.98
2023-03-06T13:52:56.218Z,16.17
2023-03-06T13:54:00.711Z,19.27
2023-03-06T13:55:14.520Z,17.13
2023-03-06T13:56:50.223Z,22.33
2023-03-06T13:58:10.589Z,22.98
2023-03-06T13:59:24.286Z,16.98
2023-03-06T14:00:51.136Z,16.45
2023-03-06T14:02:29.874Z,16.55
2023-03-06T14:03:47.961Z,21.55
2023-03-06T14:05:01.093Z,19.52
2023-03-06T14:06:34.558Z,18.65
2023-03-06T14:08:46.698Z,15.48
2023-03-06T14:09:59.669Z,18.63
2023-03-06T14:11:17.227Z,19.63
2023-03-06T14:12:26.858Z,18.85
2023-03-06T14:13:47.863Z,20.15
2023-03-06T14:14:58.956Z,20.33
2023-03-06T14:16:00.657Z,16.58
2023-03-06T14:17:05.130Z,18.35
2023-03-06T14:18:15.875Z,20.58
2023-03-06T14:19:19.263Z,16.30
2023-03-06T14:20:22.129Z,16.20
2023-03-06T14:22:39.845Z,15.55
2023-03-06T14:23:45.977Z,17.90
2023-03-06T14:25:00.908Z,16.10